EDSB/FKB METAR and TAF weather

Enter ICAO airport designator
Station Type Date Time Source
EDSB METAR 2022/01/26 07:20 UTC NOAA

EDSB 260720Z 22005KT 4000 BR OVC005 M01/M01 Q1033


Station Type Date Time Source
EDSB Decoded METAR 2022/01/26 07:20 UTC NOAA

Karlsruhe, Baden Wurttemberg, Germany (EDSB) 48-46-43N 008-04-47E
Jan 26, 2022 - 02:20 AM EST / 2022.01.26 0720 UTC
Wind: from the SW (220 degrees) at 6 MPH (5 KT):0
Visibility: 2 mile(s):0
Sky conditions: overcast
Weather: mist
Temperature: 30 F (-1 C)
Windchill: 23 F (-5 C):1
Dew Point: 30 F (-1 C)
Relative Humidity: 100%
Pressure (altimeter): 30.50 in. Hg (1033 hPa)
ob: EDSB 260720Z 22005KT 4000 BR OVC005 M01/M01 Q1033
cycle: 7

Station Type Date Time Source
EDSB TAF 2022/01/26 06:27 UTC NOAA

TAF EDSB 260500Z 2606/2706 VRB03KT 1200 BR OVC003
TEMPO 2606/2609 0200 FZFG VV000
BECMG 2609/2612 21006KT 3000 BR BKN009
TEMPO 2612/2620 6000 BKN015

Example: see airport list